createdAt,value
2022-08-14T00:01:11.514Z,100136.09
2022-08-14T00:03:41.925Z,100146.28
2022-08-14T00:06:25.302Z,100142.78
2022-08-14T00:08:59.144Z,100143.09
2022-08-14T00:11:32.353Z,100139.78
2022-08-14T00:14:02.959Z,100136.31
2022-08-14T00:16:40.974Z,100131.81
2022-08-14T00:19:19.848Z,100140.78
2022-08-14T00:21:52.158Z,100115.56
2022-08-14T00:24:28.837Z,100136.19
2022-08-14T00:27:02.092Z,100140.47
2022-08-14T00:29:40.341Z,100144.94
2022-08-14T00:32:51.893Z,100116.63
2022-08-14T00:35:02.865Z,100142.56
2022-08-14T00:37:32.668Z,100148.75
2022-08-14T00:40:02.983Z,100150.53
2022-08-14T00:43:02.950Z,100146.25
2022-08-14T00:45:32.730Z,100133.78
2022-08-14T00:48:02.002Z,100156.72
2022-08-14T00:50:32.418Z,100155.25
2022-08-14T00:53:02.885Z,100164.22
2022-08-14T00:55:36.080Z,100164.22
2022-08-14T00:58:27.794Z,100151.44
2022-08-14T01:01:11.022Z,100161.31
2022-08-14T01:03:42.594Z,100170.59
2022-08-14T01:06:18.496Z,100170.59
2022-08-14T01:08:52.113Z,100158.63
2022-08-14T01:11:35.494Z,100166.81
2022-08-14T01:14:25.900Z,100181.31
2022-08-14T01:16:55.924Z,100182.09
2022-08-14T01:19:44.370Z,100185.28
2022-08-14T01:22:18.963Z,100165.00
2022-08-14T01:24:50.888Z,100180.69
2022-08-14T01:27:22.382Z,100162.50
2022-08-14T01:30:03.970Z,100160.63
2022-08-14T01:32:37.280Z,100174.69
2022-08-14T01:35:19.429Z,100185.47
2022-08-14T01:38:02.024Z,100186.28
2022-08-14T01:40:40.944Z,100186.28
2022-08-14T01:43:22.131Z,100183.91
2022-08-14T01:45:57.779Z,100181.34
2022-08-14T01:48:39.330Z,100192.16
2022-08-14T01:51:18.764Z,100185.97
2022-08-14T01:53:54.689Z,100179.88
2022-08-14T01:56:37.482Z,100193.47
2022-08-14T01:59:21.960Z,100160.13
2022-08-14T02:01:58.423Z,100184.38
2022-08-14T02:04:55.839Z,100188.38
2022-08-14T02:07:34.424Z,100188.06
2022-08-14T02:10:16.260Z,100187.44
2022-08-14T02:12:57.030Z,100187.44
2022-08-14T02:15:27.496Z,100173.94
2022-08-14T02:17:56.889Z,100176.34
2022-08-14T02:20:28.320Z,100166.66
2022-08-14T02:22:57.542Z,100174.75
2022-08-14T02:25:31.165Z,100182.72
2022-08-14T02:28:22.027Z,100175.72
2022-08-14T02:30:52.644Z,100175.25
2022-08-14T02:33:24.615Z,100178.09
2022-08-14T02:36:05.109Z,100176.53
2022-08-14T02:38:49.081Z,100173.34
2022-08-14T02:41:19.335Z,100180.50
2022-08-14T02:43:49.069Z,100190.72
2022-08-14T02:46:20.624Z,100156.28
2022-08-14T02:49:03.568Z,100164.31
2022-08-14T02:51:37.018Z,100173.41
2022-08-14T02:54:08.662Z,100170.38
2022-08-14T02:57:15.431Z,100148.84
2022-08-14T02:59:30.826Z,100175.78
2022-08-14T03:02:04.467Z,100163.91
2022-08-14T03:04:34.698Z,100162.28
2022-08-14T03:07:07.864Z,100162.47
2022-08-14T03:10:24.693Z,100158.97
2022-08-14T03:12:32.649Z,100155.50
2022-08-14T03:15:14.175Z,100142.31
2022-08-14T03:17:57.709Z,100142.00
2022-08-14T03:20:29.946Z,100143.59
2022-08-14T03:23:04.601Z,100135.00
2022-08-14T03:25:37.776Z,100139.88
2022-08-14T03:28:14.717Z,100131.31
2022-08-14T03:31:01.498Z,100138.00
2022-08-14T03:33:37.694Z,100138.19
2022-08-14T03:37:39.165Z,100126.38
2022-08-14T03:39:12.936Z,100132.59
2022-08-14T03:41:48.910Z,100123.53
2022-08-14T03:45:27.139Z,100128.31
2022-08-14T03:47:09.161Z,100112.88
2022-08-14T03:49:42.628Z,100113.22
2022-08-14T03:52:28.105Z,100119.91
2022-08-14T03:55:05.020Z,100118.78
2022-08-14T03:57:37.543Z,100100.53
2022-08-14T04:00:13.825Z,100113.22
2022-08-14T04:03:01.402Z,100108.00
2022-08-14T04:05:38.050Z,100109.59
2022-08-14T04:08:29.314Z,100119.28
2022-08-14T04:11:02.774Z,100118.03
2022-08-14T04:13:34.625Z,100115.78
2022-08-14T04:16:16.486Z,100104.97
2022-08-14T04:18:47.743Z,100103.91
2022-08-14T04:21:18.078Z,100091.81
2022-08-14T04:23:57.889Z,100098.50
2022-08-14T04:26:42.562Z,100095.00
2022-08-14T04:29:16.085Z,100093.88
2022-08-14T04:32:58.418Z,100030.13
2022-08-14T04:34:41.941Z,100093.88
2022-08-14T04:37:32.865Z,100067.59
2022-08-14T04:40:20.129Z,100083.88
2022-08-14T04:43:07.527Z,100082.31
2022-08-14T04:45:44.090Z,100062.19
2022-08-14T04:48:38.834Z,100088.00
2022-08-14T04:51:08.005Z,100076.72
2022-08-14T04:53:43.239Z,100088.47
2022-08-14T04:56:31.199Z,100066.38
2022-08-14T04:59:10.585Z,100076.91
2022-08-14T05:01:49.802Z,100072.28
2022-08-14T05:04:23.120Z,100074.97
2022-08-14T05:06:55.241Z,100076.91
2022-08-14T05:09:28.681Z,100059.72
2022-08-14T05:13:08.285Z,100045.88
2022-08-14T05:14:54.704Z,100055.06
2022-08-14T05:17:43.631Z,100046.03
2022-08-14T05:21:05.061Z,100060.03
2022-08-14T05:23:04.925Z,100053.84
2022-08-14T05:25:34.608Z,100035.63
2022-08-14T05:28:14.159Z,100060.34
2022-08-14T05:30:45.810Z,100049.19
2022-08-14T05:33:25.504Z,100034.25
2022-08-14T05:35:55.533Z,100047.16
2022-08-14T05:38:30.997Z,100029.66
2022-08-14T05:41:02.058Z,100048.75
2022-08-14T05:43:41.148Z,100033.00
2022-08-14T05:46:25.159Z,100035.56
2022-08-14T05:48:57.562Z,100012.28
2022-08-14T05:51:28.624Z,100028.09
2022-08-14T05:54:11.462Z,100031.28
2022-08-14T05:56:45.027Z,100030.78
2022-08-14T05:59:17.338Z,100025.22
2022-08-14T06:01:51.052Z,100024.91
2022-08-14T06:04:22.510Z,100000.22
2022-08-14T06:06:54.664Z,100025.41
2022-08-14T06:09:27.354Z,100026.50
2022-08-14T06:11:59.209Z,100018.72
2022-08-14T06:14:31.040Z,100020.63
2022-08-14T06:17:00.279Z,100019.50
2022-08-14T06:19:29.872Z,100009.66
2022-08-14T06:22:02.263Z,100002.94
2022-08-14T06:24:34.825Z,100015.41
2022-08-14T06:27:10.018Z,100001.88
2022-08-14T06:29:41.817Z,100003.00
2022-08-14T06:32:37.596Z,99987.06
2022-08-14T06:35:02.915Z,100005.38
2022-08-14T06:37:59.905Z,99977.56
2022-08-14T06:40:43.353Z,100004.59
2022-08-14T06:43:17.740Z,99999.66
2022-08-14T06:45:54.411Z,99992.19
2022-08-14T06:48:26.480Z,100000.28
2022-08-14T06:50:58.308Z,99989.50
2022-08-14T06:53:28.606Z,99996.19
2022-08-14T06:56:01.952Z,99980.91
2022-08-14T06:58:32.726Z,99989.81
2022-08-14T07:01:26.814Z,99995.41
2022-08-14T07:04:23.784Z,99999.22
2022-08-14T07:07:01.718Z,99989.63
2022-08-14T07:09:40.640Z,99996.50
2022-08-14T07:12:36.018Z,100006.50
2022-08-14T07:15:14.178Z,100000.28
2022-08-14T07:17:52.006Z,100002.53
2022-08-14T07:20:30.581Z,99999.97
2022-08-14T07:23:07.999Z,100008.22
2022-08-14T07:25:43.866Z,100000.13
2022-08-14T07:28:20.878Z,99988.00
2022-08-14T07:31:04.835Z,99991.25
2022-08-14T07:33:51.081Z,99972.81
2022-08-14T07:36:27.786Z,99976.16
2022-08-14T07:39:12.423Z,99973.44
2022-08-14T07:41:45.793Z,99968.81
2022-08-14T07:44:32.902Z,99978.06
2022-08-14T07:47:05.809Z,99980.78
2022-08-14T07:49:39.238Z,99979.16
2022-08-14T07:52:10.883Z,99973.59
2022-08-14T07:54:43.876Z,99969.75
2022-08-14T07:57:22.236Z,99973.28
2022-08-14T07:59:57.317Z,99970.56
2022-08-14T08:02:33.329Z,99976.59
2022-08-14T08:05:04.830Z,99978.19
2022-08-14T08:07:34.264Z,99978.50
2022-08-14T08:11:02.051Z,99974.69
2022-08-14T08:13:29.240Z,99972.50
2022-08-14T08:16:03.396Z,99941.44
2022-08-14T08:18:36.753Z,99962.31
2022-08-14T08:21:12.603Z,99969.31
2022-08-14T08:23:43.706Z,99973.13
2022-08-14T08:26:23.063Z,99969.31
2022-08-14T08:29:00.969Z,99961.84
2022-08-14T08:31:35.007Z,99967.09
2022-08-14T08:34:14.154Z,99960.41
2022-08-14T08:36:50.257Z,99968.69
2022-08-14T08:39:22.080Z,99953.25
2022-08-14T08:41:53.635Z,99950.25
2022-08-14T08:44:34.666Z,99958.19
2022-08-14T08:47:09.228Z,99954.06
2022-08-14T08:49:52.868Z,99960.09
2022-08-14T08:52:32.346Z,99954.09
2022-08-14T08:55:04.979Z,99939.91
2022-08-14T08:57:41.422Z,99934.28
2022-08-14T09:00:25.413Z,99960.59
2022-08-14T09:02:58.838Z,99956.94
2022-08-14T09:05:31.470Z,99966.28
2022-08-14T09:08:31.568Z,99967.88
2022-08-14T09:11:20.014Z,99970.56
2022-08-14T09:13:55.732Z,99955.31
2022-08-14T09:16:26.902Z,99958.03
2022-08-14T09:18:58.144Z,99957.69
2022-08-14T09:21:31.126Z,99951.03
2022-08-14T09:24:29.290Z,99949.91
2022-08-14T09:26:53.705Z,99927.81
2022-08-14T09:29:24.054Z,99926.72
2022-08-14T09:32:01.628Z,99920.03
2022-08-14T09:34:58.759Z,99932.47
2022-08-14T09:37:40.165Z,99919.34
2022-08-14T09:40:40.690Z,99945.16
2022-08-14T09:43:50.021Z,99941.97
2022-08-14T09:46:21.280Z,99944.16
2022-08-14T09:49:01.612Z,99939.56
2022-08-14T09:51:51.845Z,99942.28
2022-08-14T09:54:26.043Z,99942.59
2022-08-14T09:56:59.669Z,99939.41
2022-08-14T09:59:32.278Z,99939.41
2022-08-14T10:02:08.521Z,99931.59
2022-08-14T10:04:46.165Z,99930.00
2022-08-14T10:07:16.352Z,99924.88
2022-08-14T10:09:57.599Z,99941.59
2022-08-14T10:12:44.885Z,99944.31
2022-08-14T10:15:32.751Z,99935.91
2022-08-14T10:18:18.215Z,99940.50
2022-08-14T10:21:09.717Z,99936.97
2022-08-14T10:23:57.589Z,99933.03
2022-08-14T10:26:28.456Z,99935.72
2022-08-14T10:29:17.770Z,99929.22
2022-08-14T10:32:01.764Z,99939.19
2022-08-14T10:34:41.146Z,99938.41
2022-08-14T10:37:15.152Z,99940.00
2022-08-14T10:40:02.022Z,99935.22
2022-08-14T10:42:39.820Z,99947.13
2022-08-14T10:45:29.391Z,99943.44
2022-08-14T10:48:07.957Z,99952.81
2022-08-14T10:50:46.989Z,99949.66
2022-08-14T10:53:21.365Z,99946.63
2022-08-14T10:55:51.011Z,99958.19
2022-08-14T10:58:37.976Z,99966.59
2022-08-14T11:01:14.664Z,99969.16
2022-08-14T11:03:55.943Z,99958.31
2022-08-14T11:06:27.265Z,99985.81
2022-08-14T11:08:57.447Z,99987.72
2022-08-14T11:11:37.285Z,99998.50
2022-08-14T11:14:10.395Z,99994.19
2022-08-14T11:16:53.290Z,99994.19
2022-08-14T11:19:26.037Z,99991.44
2022-08-14T11:22:03.605Z,100005.31
2022-08-14T11:24:50.952Z,100008.00
2022-08-14T11:27:33.436Z,99993.56
2022-08-14T11:30:51.145Z,99999.09
2022-08-14T11:33:01.760Z,99994.63
2022-08-14T11:35:36.930Z,100000.22
2022-08-14T11:38:22.178Z,100002.41
2022-08-14T11:40:52.507Z,100006.22
2022-08-14T11:43:29.534Z,100011.63
2022-08-14T11:46:03.482Z,100015.44
2022-08-14T11:49:03.884Z,99988.22
2022-08-14T11:51:30.885Z,100006.03
2022-08-14T11:54:10.267Z,99975.94
2022-08-14T11:56:43.028Z,100004.94
2022-08-14T11:59:19.504Z,100001.47
2022-08-14T12:01:51.003Z,100000.16
2022-08-14T12:04:32.687Z,99999.66
2022-08-14T12:07:10.459Z,100016.03
2022-08-14T12:09:43.167Z,100011.75
2022-08-14T12:12:35.065Z,100010.94
2022-08-14T12:15:08.491Z,100017.44
2022-08-14T12:17:50.944Z,100004.78
2022-08-14T12:20:29.560Z,100005.56
2022-08-14T12:23:15.614Z,100000.47
2022-08-14T12:26:01.538Z,99992.81
2022-08-14T12:29:00.476Z,100001.28
2022-08-14T12:31:36.391Z,99978.06
2022-08-14T12:34:24.221Z,99980.25
2022-08-14T12:37:11.842Z,99993.50
2022-08-14T12:39:57.039Z,100011.56
2022-08-14T12:42:41.840Z,100002.97
2022-08-14T12:45:18.894Z,100008.06
2022-08-14T12:47:51.628Z,100012.69
2022-08-14T12:50:22.682Z,100016.16
2022-08-14T12:53:06.484Z,100016.47
2022-08-14T12:56:22.591Z,100019.97
2022-08-14T12:58:52.071Z,100018.38
2022-08-14T13:01:29.011Z,100026.47
2022-08-14T13:04:11.882Z,100031.88
2022-08-14T13:06:51.338Z,100028.06
2022-08-14T13:09:23.276Z,100001.56
2022-08-14T13:11:58.404Z,100027.25
2022-08-14T13:14:29.787Z,100021.38
2022-08-14T13:17:00.710Z,100011.44
2022-08-14T13:19:31.358Z,100034.56
2022-08-14T13:22:09.292Z,100041.84
2022-08-14T13:24:44.146Z,100043.72
2022-08-14T13:27:18.719Z,100035.94
2022-08-14T13:29:52.031Z,100041.34
2022-08-14T13:32:22.488Z,100034.69
2022-08-14T13:34:55.008Z,100032.44
2022-08-14T13:37:25.063Z,100024.13
2022-08-14T13:40:00.783Z,100048.63
2022-08-14T13:42:31.512Z,100043.84
2022-08-14T13:45:03.748Z,100056.25
2022-08-14T13:47:41.301Z,100039.06
2022-08-14T13:50:20.380Z,100050.06
2022-08-14T13:52:56.981Z,100051.16
2022-08-14T13:55:31.064Z,100057.34
2022-08-14T13:58:04.428Z,100054.63
2022-08-14T14:00:53.557Z,100026.41
2022-08-14T14:03:30.423Z,100049.56
2022-08-14T14:06:04.945Z,100059.25
2022-08-14T14:08:43.348Z,100056.56
2022-08-14T14:11:17.006Z,100070.03
2022-08-14T14:13:49.605Z,100070.03
2022-08-14T14:16:22.044Z,100060.16
2022-08-14T14:19:10.334Z,100067.63
2022-08-14T14:21:43.748Z,100055.75
2022-08-14T14:24:16.291Z,100060.03
2022-08-14T14:26:53.343Z,100058.44
2022-08-14T14:29:26.341Z,100061.16
2022-08-14T14:31:58.655Z,100062.22
2022-08-14T14:34:34.709Z,100061.94
2022-08-14T14:37:06.114Z,100066.53
2022-08-14T14:40:52.218Z,100066.84
2022-08-14T14:42:32.010Z,100072.44
2022-08-14T14:45:16.970Z,100049.78
2022-08-14T14:48:14.265Z,100071.63
2022-08-14T14:53:40.217Z,100079.72
2022-08-14T14:56:50.512Z,100067.34
2022-08-14T14:59:21.565Z,100067.34
2022-08-14T15:02:05.445Z,100065.72
2022-08-14T15:04:39.114Z,100061.16
2022-08-14T15:07:15.824Z,100062.72
2022-08-14T15:09:54.744Z,100060.34
2022-08-14T15:12:55.061Z,100041.16
2022-08-14T15:15:24.361Z,100058.44
2022-08-14T15:17:56.991Z,100043.84
2022-08-14T15:20:33.604Z,100043.06
2022-08-14T15:23:12.586Z,100037.50
2022-08-14T15:25:52.311Z,100027.91
2022-08-14T15:28:26.620Z,100035.56
2022-08-14T15:30:59.226Z,100030.91
2022-08-14T15:34:13.379Z,100041.28
2022-08-14T15:36:43.679Z,100046.66
2022-08-14T15:39:22.451Z,100034.59
2022-08-14T15:41:52.817Z,100035.09
2022-08-14T15:44:31.329Z,100037.81
2022-08-14T15:47:08.529Z,100040.00
2022-08-14T15:49:43.946Z,100041.09
2022-08-14T15:52:32.112Z,100036.00
2022-08-14T15:55:06.766Z,100037.91
2022-08-14T15:58:01.234Z,100029.84
2022-08-14T16:01:06.557Z,100039.00
2022-08-14T16:03:42.498Z,100034.91
2022-08-14T16:06:23.648Z,100039.19
2022-08-14T16:09:07.913Z,100037.13
2022-08-14T16:11:50.569Z,100033.00
2022-08-14T16:14:25.793Z,100017.06
2022-08-14T16:17:00.937Z,100004.16
2022-08-14T16:19:43.972Z,100013.34
2022-08-14T16:22:59.191Z,100006.03
2022-08-14T16:25:07.898Z,99991.78
2022-08-14T16:27:41.341Z,100018.44
2022-08-14T16:30:25.561Z,100011.72
2022-08-14T16:33:02.311Z,100001.84
2022-08-14T16:35:59.664Z,100016.81
2022-08-14T16:38:46.156Z,99986.09
2022-08-14T16:41:21.879Z,99995.25
2022-08-14T16:44:22.110Z,100004.66
2022-08-14T16:47:05.482Z,99985.66
2022-08-14T16:50:04.527Z,100002.56
2022-08-14T16:52:55.744Z,99991.47
2022-08-14T16:55:30.701Z,99984.09
2022-08-14T16:58:09.024Z,99990.47
2022-08-14T17:00:43.010Z,99978.63
2022-08-14T17:03:15.670Z,99978.63
2022-08-14T17:05:46.942Z,99994.47
2022-08-14T17:08:32.613Z,99984.19
2022-08-14T17:11:12.544Z,99974.88
2022-08-14T17:14:01.796Z,99951.38
2022-08-14T17:16:57.392Z,99977.81
2022-08-14T17:19:27.550Z,99981.00
2022-08-14T17:22:00.877Z,99978.91
2022-08-14T17:24:56.282Z,99970.31
2022-08-14T17:27:27.515Z,99977.00
2022-08-14T17:29:58.884Z,99967.72
2022-08-14T17:32:55.934Z,99950.94
2022-08-14T17:35:57.419Z,99971.22
2022-08-14T17:38:39.007Z,99978.50
2022-08-14T17:41:23.781Z,99980.28
2022-08-14T17:46:43.483Z,99970.31
2022-08-14T17:49:18.230Z,99962.66
2022-08-14T17:52:16.592Z,99969.50
2022-08-14T17:54:58.872Z,99967.59
2022-08-14T17:57:35.170Z,99966.00
2022-08-14T18:00:06.343Z,99966.81
2022-08-14T18:02:36.735Z,99948.97
2022-08-14T18:05:15.083Z,99952.38
2022-08-14T18:08:00.273Z,99953.94
2022-08-14T18:10:55.031Z,99958.22
2022-08-14T18:13:51.690Z,99952.81
2022-08-14T18:16:23.010Z,99960.28
2022-08-14T18:18:53.197Z,99923.84
2022-08-14T18:21:56.066Z,99943.66
2022-08-14T18:24:28.076Z,99949.50
2022-08-14T18:27:09.298Z,99933.00
2022-08-14T18:29:54.936Z,99935.38
2022-08-14T18:32:34.976Z,99943.66
2022-08-14T18:35:13.222Z,99943.34
2022-08-14T18:37:55.711Z,99949.81
2022-08-14T18:40:35.078Z,99939.03
2022-08-14T18:43:07.654Z,99942.03
2022-08-14T18:45:43.113Z,99945.56
2022-08-14T18:48:50.980Z,99936.66
2022-08-14T18:51:46.117Z,99935.88
2022-08-14T18:54:32.956Z,99927.13
2022-08-14T18:57:05.794Z,99926.00
2022-08-14T18:59:44.896Z,99940.16
2022-08-14T19:02:33.606Z,99915.47
2022-08-14T19:05:06.847Z,99930.50
2022-08-14T19:07:38.995Z,99915.22
2022-08-14T19:10:16.679Z,99920.78
2022-08-14T19:12:57.881Z,99926.50
2022-08-14T19:15:35.663Z,99933.50
2022-08-14T19:18:28.723Z,99927.00
2022-08-14T19:21:01.242Z,99924.91
2022-08-14T19:23:44.005Z,99928.38
2022-08-14T19:26:35.797Z,99924.91
2022-08-14T19:29:25.493Z,99929.50
2022-08-14T19:31:59.535Z,99903.41
2022-08-14T19:34:52.343Z,99916.34
2022-08-14T19:37:58.218Z,99917.91
2022-08-14T19:40:43.305Z,99923.13
2022-08-14T19:43:55.042Z,99920.41
2022-08-14T19:46:39.285Z,99916.75
2022-08-14T19:49:06.288Z,99925.34
2022-08-14T19:51:43.961Z,99911.69
2022-08-14T19:54:15.078Z,99923.91
2022-08-14T19:56:47.350Z,99904.03
2022-08-14T19:59:21.245Z,99921.84
2022-08-14T20:01:53.675Z,99926.91
2022-08-14T20:04:45.896Z,99926.75
2022-08-14T20:07:59.759Z,99917.19
2022-08-14T20:11:07.228Z,99936.91
2022-08-14T20:13:32.482Z,99922.88
2022-08-14T20:16:21.113Z,99939.28
2022-08-14T20:19:29.145Z,99926.09
2022-08-14T20:22:35.811Z,99940.09
2022-08-14T20:24:55.186Z,99921.13
2022-08-14T20:27:33.409Z,99944.41
2022-08-14T20:30:29.863Z,99928.78
2022-08-14T20:33:10.885Z,99948.47
2022-08-14T20:35:50.358Z,99930.66
2022-08-14T20:38:32.491Z,99948.19
2022-08-14T20:41:10.830Z,99942.78
2022-08-14T20:44:02.798Z,99944.50
2022-08-14T20:46:39.569Z,99916.81
2022-08-14T20:49:12.232Z,99949.78
2022-08-14T20:51:54.488Z,99916.63
2022-08-14T20:54:36.339Z,99946.09
2022-08-14T20:57:19.521Z,99941.81
2022-08-14T20:59:57.347Z,99941.03
2022-08-14T21:02:49.990Z,99947.38
2022-08-14T21:05:33.522Z,99956.06
2022-08-14T21:08:08.329Z,99953.69
2022-08-14T21:10:55.004Z,99956.06
2022-08-14T21:14:20.758Z,99959.56
2022-08-14T21:16:33.017Z,99942.53
2022-08-14T21:19:05.559Z,99964.47
2022-08-14T21:21:40.468Z,99942.53
2022-08-14T21:24:39.938Z,99956.06
2022-08-14T21:27:13.161Z,99934.09
2022-08-14T21:29:55.475Z,99920.56
2022-08-14T21:32:47.187Z,99958.56
2022-08-14T21:35:23.182Z,99960.19
2022-08-14T21:37:54.626Z,99967.16
2022-08-14T21:40:41.573Z,99961.88
2022-08-14T21:43:18.910Z,99972.84
2022-08-14T21:45:55.781Z,99966.97
2022-08-14T21:48:30.853Z,99973.66
2022-08-14T21:51:54.493Z,99966.19
2022-08-14T21:53:58.284Z,99981.75
2022-08-14T21:56:39.694Z,99966.31
2022-08-14T21:59:24.499Z,99976.66
2022-08-14T22:02:03.531Z,99972.56
2022-08-14T22:04:40.745Z,99974.47
2022-08-14T22:07:19.921Z,99976.84
2022-08-14T22:09:59.658Z,99967.47
2022-08-14T22:12:57.893Z,99977.94
2022-08-14T22:15:21.991Z,99973.66
2022-08-14T22:17:54.418Z,99970.47
2022-08-14T22:20:26.919Z,99972.66
2022-08-14T22:22:57.135Z,99982.72
2022-08-14T22:25:33.734Z,99983.81
2022-08-14T22:28:07.008Z,99994.31
2022-08-14T22:30:41.791Z,99981.56
2022-08-14T22:33:13.570Z,99976.16
2022-08-14T22:35:43.184Z,99993.19
2022-08-14T22:38:37.252Z,99995.59
2022-08-14T22:41:30.487Z,100007.66
2022-08-14T22:43:56.969Z,100002.88
2022-08-14T22:46:29.069Z,100005.59
2022-08-14T22:48:58.301Z,99996.31
2022-08-14T22:51:28.035Z,100007.16
2022-08-14T22:53:59.317Z,100013.56
2022-08-14T22:56:30.825Z,100004.16
2022-08-14T22:59:02.689Z,100000.31
2022-08-14T23:01:57.342Z,100004.03
2022-08-14T23:04:35.439Z,99971.09
2022-08-14T23:07:23.581Z,99992.22
2022-08-14T23:10:31.116Z,100015.31
2022-08-14T23:12:54.691Z,99989.22
2022-08-14T23:15:28.963Z,100002.78
2022-08-14T23:18:00.172Z,100003.44
2022-08-14T23:20:36.341Z,100001.56
2022-08-14T23:23:22.822Z,99996.06
2022-08-14T23:25:59.999Z,100000.50
2022-08-14T23:28:34.846Z,99993.06
2022-08-14T23:31:34.728Z,99999.16
2022-08-14T23:34:07.525Z,100004.94
2022-08-14T23:36:53.462Z,99974.94
2022-08-14T23:39:30.193Z,100004.16
2022-08-14T23:42:04.284Z,100001.44
2022-08-14T23:44:36.256Z,99998.75
2022-08-14T23:47:10.428Z,100003.53
2022-08-14T23:50:01.068Z,99994.97
2022-08-14T23:53:06.038Z,99991.97
2022-08-14T23:55:21.173Z,99978.38
2022-08-14T23:57:57.420Z,99976.22
